sensor_id;sensor_type;location;lat;lon;timestamp;pressure;altitude;pressure_sealevel;temperature;humidity
33265;BME280;31404;53.974;-1.086;2023-04-26T00:00:34;101945.79;;;8.26;58.07
33265;BME280;31404;53.974;-1.086;2023-04-26T00:05:34;101950.43;;;7.16;59.21
33265;BME280;31404;53.974;-1.086;2023-04-26T00:10:34;101942.58;;;7.81;57.88
33265;BME280;31404;53.974;-1.086;2023-04-26T00:15:34;101942.60;;;6.22;62.83
33265;BME280;31404;53.974;-1.086;2023-04-26T00:20:35;101939.88;;;5.90;64.42
33265;BME280;31404;53.974;-1.086;2023-04-26T00:25:35;101943.08;;;5.62;65.16
33265;BME280;31404;53.974;-1.086;2023-04-26T00:30:35;101945.80;;;5.23;67.88
33265;BME280;31404;53.974;-1.086;2023-04-26T00:35:34;101944.60;;;5.60;67.22
33265;BME280;31404;53.974;-1.086;2023-04-26T00:40:34;101944.43;;;4.69;69.74
33265;BME280;31404;53.974;-1.086;2023-04-26T00:45:34;101938.81;;;4.38;71.33
33265;BME280;31404;53.974;-1.086;2023-04-26T00:50:34;101938.49;;;5.60;68.03
33265;BME280;31404;53.974;-1.086;2023-04-26T00:55:34;101932.75;;;5.15;68.90
33265;BME280;31404;53.974;-1.086;2023-04-26T01:00:34;101938.02;;;4.11;72.90
33265;BME280;31404;53.974;-1.086;2023-04-26T01:05:34;101932.05;;;3.59;74.66
33265;BME280;31404;53.974;-1.086;2023-04-26T01:10:35;101922.87;;;3.72;75.29
33265;BME280;31404;53.974;-1.086;2023-04-26T01:15:35;101914.14;;;4.34;73.10
33265;BME280;31404;53.974;-1.086;2023-04-26T01:20:34;101905.38;;;4.54;72.74
33265;BME280;31404;53.974;-1.086;2023-04-26T01:25:34;101897.25;;;4.93;70.10
33265;BME280;31404;53.974;-1.086;2023-04-26T01:30:35;101889.84;;;5.90;67.88
33265;BME280;31404;53.974;-1.086;2023-04-26T01:35:35;101881.51;;;5.74;67.44
33265;BME280;31404;53.974;-1.086;2023-04-26T01:40:35;101877.76;;;5.13;68.94
33265;BME280;31404;53.974;-1.086;2023-04-26T01:45:35;101869.51;;;5.37;68.63
33265;BME280;31404;53.974;-1.086;2023-04-26T01:50:34;101870.43;;;5.47;68.80
33265;BME280;31404;53.974;-1.086;2023-04-26T01:55:39;101869.78;;;5.79;67.75
33265;BME280;31404;53.974;-1.086;2023-04-26T02:00:35;101866.75;;;4.22;72.91
33265;BME280;31404;53.974;-1.086;2023-04-26T02:05:35;101866.32;;;5.18;69.40
33265;BME280;31404;53.974;-1.086;2023-04-26T02:10:34;101864.95;;;4.37;72.59
33265;BME280;31404;53.974;-1.086;2023-04-26T02:15:34;101867.49;;;4.70;71.67
33265;BME280;31404;53.974;-1.086;2023-04-26T02:20:34;101859.77;;;5.34;69.17
33265;BME280;31404;53.974;-1.086;2023-04-26T02:25:34;101851.04;;;6.54;67.09
33265;BME280;31404;53.974;-1.086;2023-04-26T02:30:35;101853.88;;;6.95;63.50
33265;BME280;31404;53.974;-1.086;2023-04-26T02:35:35;101840.80;;;8.12;61.75
33265;BME280;31404;53.974;-1.086;2023-04-26T02:40:35;101839.90;;;8.13;61.48
33265;BME280;31404;53.974;-1.086;2023-04-26T02:50:34;101825.17;;;6.44;64.96
33265;BME280;31404;53.974;-1.086;2023-04-26T02:55:35;101828.68;;;3.59;74.94
33265;BME280;31404;53.974;-1.086;2023-04-26T03:00:35;101831.24;;;3.13;77.58
33265;BME280;31404;53.974;-1.086;2023-04-26T03:05:35;101829.81;;;2.96;79.13
33265;BME280;31404;53.974;-1.086;2023-04-26T03:10:35;101823.58;;;3.36;77.12
33265;BME280;31404;53.974;-1.086;2023-04-26T03:15:35;101814.33;;;3.76;76.09
33265;BME280;31404;53.974;-1.086;2023-04-26T03:20:35;101809.79;;;4.30;73.06
33265;BME280;31404;53.974;-1.086;2023-04-26T03:25:35;101806.69;;;4.25;74.09
33265;BME280;31404;53.974;-1.086;2023-04-26T03:30:35;101809.69;;;3.41;76.58
33265;BME280;31404;53.974;-1.086;2023-04-26T03:35:34;101800.70;;;3.93;75.26
33265;BME280;31404;53.974;-1.086;2023-04-26T03:40:34;101796.09;;;4.03;73.26
33265;BME280;31404;53.974;-1.086;2023-04-26T03:45:35;101794.88;;;3.29;77.31
33265;BME280;31404;53.974;-1.086;2023-04-26T03:50:35;101789.53;;;4.32;73.51
33265;BME280;31404;53.974;-1.086;2023-04-26T03:55:35;101795.44;;;3.40;76.10
33265;BME280;31404;53.974;-1.086;2023-04-26T04:00:36;101789.42;;;3.75;74.67
33265;BME280;31404;53.974;-1.086;2023-04-26T04:05:34;101789.95;;;3.89;74.52
33265;BME280;31404;53.974;-1.086;2023-04-26T04:10:34;101790.19;;;4.07;74.16
33265;BME280;31404;53.974;-1.086;2023-04-26T04:15:34;101790.65;;;5.18;70.25
33265;BME280;31404;53.974;-1.086;2023-04-26T04:20:34;101791.48;;;6.43;65.18
33265;BME280;31404;53.974;-1.086;2023-04-26T04:25:34;101791.11;;;5.96;68.46
33265;BME280;31404;53.974;-1.086;2023-04-26T04:30:34;101792.67;;;4.40;71.34
33265;BME280;31404;53.974;-1.086;2023-04-26T04:35:34;101789.91;;;3.64;75.19
33265;BME280;31404;53.974;-1.086;2023-04-26T04:40:34;101788.21;;;3.75;74.18
33265;BME280;31404;53.974;-1.086;2023-04-26T04:45:35;101787.49;;;3.16;76.73
33265;BME280;31404;53.974;-1.086;2023-04-26T04:50:34;101787.88;;;1.77;83.63
33265;BME280;31404;53.974;-1.086;2023-04-26T04:55:34;101788.63;;;3.08;78.51
33265;BME280;31404;53.974;-1.086;2023-04-26T05:00:35;101788.04;;;2.99;78.94
33265;BME280;31404;53.974;-1.086;2023-04-26T05:05:35;101783.22;;;5.61;69.77
33265;BME280;31404;53.974;-1.086;2023-04-26T05:10:35;101790.09;;;6.79;66.19
33265;BME280;31404;53.974;-1.086;2023-04-26T05:15:35;101791.21;;;6.57;65.00
33265;BME280;31404;53.974;-1.086;2023-04-26T05:20:35;101792.30;;;7.11;64.42
33265;BME280;31404;53.974;-1.086;2023-04-26T05:25:37;101791.76;;;5.97;66.60
33265;BME280;31404;53.974;-1.086;2023-04-26T05:30:35;101795.93;;;7.03;65.73
33265;BME280;31404;53.974;-1.086;2023-04-26T05:35:35;101803.76;;;4.44;72.25
33265;BME280;31404;53.974;-1.086;2023-04-26T05:40:34;101797.24;;;4.87;73.44
33265;BME280;31404;53.974;-1.086;2023-04-26T05:45:34;101798.11;;;4.61;74.62
33265;BME280;31404;53.974;-1.086;2023-04-26T05:50:34;101795.97;;;4.10;74.61
33265;BME280;31404;53.974;-1.086;2023-04-26T05:55:34;101801.60;;;4.56;75.04
33265;BME280;31404;53.974;-1.086;2023-04-26T06:00:35;101805.64;;;4.72;72.95
33265;BME280;31404;53.974;-1.086;2023-04-26T06:05:36;101804.06;;;5.36;70.67
33265;BME280;31404;53.974;-1.086;2023-04-26T06:10:35;101807.17;;;4.50;74.23
33265;BME280;31404;53.974;-1.086;2023-04-26T06:15:34;101802.60;;;5.13;73.24
33265;BME280;31404;53.974;-1.086;2023-04-26T06:20:34;101807.86;;;3.95;75.50
33265;BME280;31404;53.974;-1.086;2023-04-26T06:25:34;101804.76;;;6.00;70.06
33265;BME280;31404;53.974;-1.086;2023-04-26T06:30:34;101806.63;;;5.25;72.56
33265;BME280;31404;53.974;-1.086;2023-04-26T06:40:44;101805.95;;;5.94;70.42
33265;BME280;31404;53.974;-1.086;2023-04-26T06:50:37;101808.84;;;5.32;71.25
33265;BME280;31404;53.974;-1.086;2023-04-26T06:55:35;101806.67;;;5.43;71.91
33265;BME280;31404;53.974;-1.086;2023-04-26T07:00:35;101803.54;;;5.10;72.94
33265;BME280;31404;53.974;-1.086;2023-04-26T07:05:35;101806.62;;;6.61;67.77
33265;BME280;31404;53.974;-1.086;2023-04-26T07:10:34;101806.35;;;4.58;73.99
33265;BME280;31404;53.974;-1.086;2023-04-26T07:15:34;101799.48;;;6.25;71.28
33265;BME280;31404;53.974;-1.086;2023-04-26T07:20:35;101797.33;;;6.12;70.86
33265;BME280;31404;53.974;-1.086;2023-04-26T07:25:34;101804.34;;;4.57;76.83
33265;BME280;31404;53.974;-1.086;2023-04-26T07:30:34;101800.78;;;6.00;73.23
33265;BME280;31404;53.974;-1.086;2023-04-26T07:35:35;101795.68;;;7.17;70.94
33265;BME280;31404;53.974;-1.086;2023-04-26T07:40:35;101794.71;;;6.20;71.66
33265;BME280;31404;53.974;-1.086;2023-04-26T07:45:35;101791.42;;;6.00;72.65
33265;BME280;31404;53.974;-1.086;2023-04-26T07:50:35;101792.16;;;5.34;75.41
33265;BME280;31404;53.974;-1.086;2023-04-26T07:55:35;101795.82;;;4.79;76.72
33265;BME280;31404;53.974;-1.086;2023-04-26T08:00:35;101791.70;;;5.23;76.69
33265;BME280;31404;53.974;-1.086;2023-04-26T08:05:37;101792.23;;;6.56;72.16
33265;BME280;31404;53.974;-1.086;2023-04-26T08:15:35;101782.46;;;7.93;66.52
33265;BME280;31404;53.974;-1.086;2023-04-26T08:20:34;101773.01;;;8.58;65.80
33265;BME280;31404;53.974;-1.086;2023-04-26T08:25:35;101774.41;;;8.14;65.72
33265;BME280;31404;53.974;-1.086;2023-04-26T08:30:35;101774.87;;;7.66;66.41
33265;BME280;31404;53.974;-1.086;2023-04-26T08:40:36;101769.96;;;7.45;69.04
33265;BME280;31404;53.974;-1.086;2023-04-26T08:45:36;101768.44;;;7.47;69.26
33265;BME280;31404;53.974;-1.086;2023-04-26T08:50:35;101773.94;;;6.90;71.12
33265;BME280;31404;53.974;-1.086;2023-04-26T08:55:36;101762.27;;;8.61;65.23
33265;BME280;31404;53.974;-1.086;2023-04-26T09:00:29;101761.62;;;7.55;68.34
33265;BME280;31404;53.974;-1.086;2023-04-26T09:05:35;101758.09;;;9.07;64.81
33265;BME280;31404;53.974;-1.086;2023-04-26T09:10:34;101761.09;;;7.47;66.87
33265;BME280;31404;53.974;-1.086;2023-04-26T09:15:34;101757.86;;;9.39;62.64
33265;BME280;31404;53.974;-1.086;2023-04-26T09:20:42;101764.39;;;8.42;64.34
33265;BME280;31404;53.974;-1.086;2023-04-26T09:25:35;101763.25;;;7.63;65.71
33265;BME280;31404;53.974;-1.086;2023-04-26T09:30:38;101764.58;;;8.26;65.90
33265;BME280;31404;53.974;-1.086;2023-04-26T09:35:37;101766.12;;;8.59;63.62
33265;BME280;31404;53.974;-1.086;2023-04-26T09:40:36;101768.00;;;7.57;66.03
33265;BME280;31404;53.974;-1.086;2023-04-26T09:50:34;101760.69;;;8.54;64.75
33265;BME280;31404;53.974;-1.086;2023-04-26T09:55:34;101748.33;;;9.27;63.28
33265;BME280;31404;53.974;-1.086;2023-04-26T10:00:37;101746.25;;;9.45;63.15
33265;BME280;31404;53.974;-1.086;2023-04-26T10:05:36;101745.18;;;9.20;62.60
33265;BME280;31404;53.974;-1.086;2023-04-26T10:10:36;101746.01;;;8.86;61.53
33265;BME280;31404;53.974;-1.086;2023-04-26T10:15:35;101739.90;;;10.49;58.20
33265;BME280;31404;53.974;-1.086;2023-04-26T10:25:35;101734.91;;;11.61;55.33
33265;BME280;31404;53.974;-1.086;2023-04-26T10:35:35;101726.56;;;12.06;54.55
33265;BME280;31404;53.974;-1.086;2023-04-26T10:40:37;101727.22;;;8.15;62.74
33265;BME280;31404;53.974;-1.086;2023-04-26T10:45:36;101714.35;;;11.59;55.07
33265;BME280;31404;53.974;-1.086;2023-04-26T10:55:38;101708.72;;;10.97;52.94
33265;BME280;31404;53.974;-1.086;2023-04-26T11:00:35;101702.79;;;11.94;52.71
33265;BME280;31404;53.974;-1.086;2023-04-26T11:05:36;101706.96;;;9.65;57.35
33265;BME280;31404;53.974;-1.086;2023-04-26T11:10:36;101696.88;;;11.45;54.07
33265;BME280;31404;53.974;-1.086;2023-04-26T11:15:35;101697.40;;;11.26;53.12
33265;BME280;31404;53.974;-1.086;2023-04-26T11:20:35;101696.56;;;10.45;53.54
33265;BME280;31404;53.974;-1.086;2023-04-26T11:25:34;101693.22;;;11.79;51.63
33265;BME280;31404;53.974;-1.086;2023-04-26T11:30:35;101687.16;;;11.51;52.02
33265;BME280;31404;53.974;-1.086;2023-04-26T11:35:35;101698.51;;;10.11;52.91
33265;BME280;31404;53.974;-1.086;2023-04-26T11:40:34;101691.60;;;10.47;52.50
33265;BME280;31404;53.974;-1.086;2023-04-26T11:45:36;101683.01;;;10.47;54.30
33265;BME280;31404;53.974;-1.086;2023-04-26T11:50:36;101680.30;;;11.26;48.59
33265;BME280;31404;53.974;-1.086;2023-04-26T11:55:35;101690.06;;;10.12;50.21
33265;BME280;31404;53.974;-1.086;2023-04-26T12:00:35;101681.74;;;11.63;48.37
33265;BME280;31404;53.974;-1.086;2023-04-26T12:05:34;101688.03;;;10.64;47.87
33265;BME280;31404;53.974;-1.086;2023-04-26T12:10:36;101689.80;;;10.54;48.97
33265;BME280;31404;53.974;-1.086;2023-04-26T12:15:35;101681.38;;;10.98;48.46
33265;BME280;31404;53.974;-1.086;2023-04-26T12:25:36;101683.37;;;11.49;48.43
33265;BME280;31404;53.974;-1.086;2023-04-26T12:30:34;101688.50;;;10.88;48.20
33265;BME280;31404;53.974;-1.086;2023-04-26T12:35:34;101690.93;;;10.04;49.27
33265;BME280;31404;53.974;-1.086;2023-04-26T12:40:35;101682.24;;;11.18;48.60
33265;BME280;31404;53.974;-1.086;2023-04-26T12:45:34;101679.60;;;11.48;48.03
33265;BME280;31404;53.974;-1.086;2023-04-26T12:50:36;101675.79;;;11.92;47.11
33265;BME280;31404;53.974;-1.086;2023-04-26T12:55:34;101674.60;;;12.96;46.27
33265;BME280;31404;53.974;-1.086;2023-04-26T13:00:34;101679.09;;;13.84;45.16
33265;BME280;31404;53.974;-1.086;2023-04-26T13:05:34;101686.42;;;11.28;46.72
33265;BME280;31404;53.974;-1.086;2023-04-26T13:10:34;101682.62;;;12.27;45.90
33265;BME280;31404;53.974;-1.086;2023-04-26T13:15:34;101684.33;;;10.98;47.80
33265;BME280;31404;53.974;-1.086;2023-04-26T13:20:34;101688.67;;;12.29;46.61
33265;BME280;31404;53.974;-1.086;2023-04-26T13:25:36;101683.98;;;13.60;45.31
33265;BME280;31404;53.974;-1.086;2023-04-26T13:30:34;101692.80;;;11.69;47.83
33265;BME280;31404;53.974;-1.086;2023-04-26T13:35:34;101692.72;;;13.59;45.51
33265;BME280;31404;53.974;-1.086;2023-04-26T13:40:36;101691.25;;;12.66;47.11
33265;BME280;31404;53.974;-1.086;2023-04-26T13:45:34;101699.46;;;11.39;49.09
33265;BME280;31404;53.974;-1.086;2023-04-26T13:50:35;101705.64;;;10.18;50.97
33265;BME280;31404;53.974;-1.086;2023-04-26T13:55:34;101702.60;;;10.53;51.70
33265;BME280;31404;53.974;-1.086;2023-04-26T14:00:34;101702.32;;;10.86;51.10
33265;BME280;31404;53.974;-1.086;2023-04-26T14:05:34;101701.86;;;11.81;49.45
33265;BME280;31404;53.974;-1.086;2023-04-26T14:10:34;101704.56;;;11.28;49.77
33265;BME280;31404;53.974;-1.086;2023-04-26T14:15:35;101708.51;;;11.65;49.85
33265;BME280;31404;53.974;-1.086;2023-04-26T14:20:35;101705.90;;;11.75;50.06
33265;BME280;31404;53.974;-1.086;2023-04-26T14:25:35;101701.27;;;11.89;49.19
33265;BME280;31404;53.974;-1.086;2023-04-26T14:30:35;101703.31;;;11.93;49.68
33265;BME280;31404;53.974;-1.086;2023-04-26T14:35:35;101703.12;;;10.92;50.93
33265;BME280;31404;53.974;-1.086;2023-04-26T14:40:35;101701.84;;;11.05;50.98
33265;BME280;31404;53.974;-1.086;2023-04-26T14:45:34;101698.70;;;11.74;49.96
33265;BME280;31404;53.974;-1.086;2023-04-26T14:50:34;101701.49;;;10.71;50.98
33265;BME280;31404;53.974;-1.086;2023-04-26T14:55:34;101688.27;;;12.48;48.71
33265;BME280;31404;53.974;-1.086;2023-04-26T15:00:34;101695.26;;;11.06;49.74
33265;BME280;31404;53.974;-1.086;2023-04-26T15:05:35;101691.84;;;10.92;50.75
33265;BME280;31404;53.974;-1.086;2023-04-26T15:10:34;101687.79;;;11.21;49.13
33265;BME280;31404;53.974;-1.086;2023-04-26T15:15:34;101683.83;;;12.21;48.56
33265;BME280;31404;53.974;-1.086;2023-04-26T15:25:34;101682.98;;;11.83;48.44
33265;BME280;31404;53.974;-1.086;2023-04-26T15:30:34;101677.37;;;12.86;47.71
33265;BME280;31404;53.974;-1.086;2023-04-26T15:35:35;101671.75;;;13.34;47.04
33265;BME280;31404;53.974;-1.086;2023-04-26T15:40:34;101678.19;;;10.63;49.82
33265;BME280;31404;53.974;-1.086;2023-04-26T15:45:34;101671.87;;;11.66;49.42
33265;BME280;31404;53.974;-1.086;2023-04-26T15:50:35;101667.37;;;11.56;49.54
33265;BME280;31404;53.974;-1.086;2023-04-26T15:55:35;101663.14;;;11.51;50.34
33265;BME280;31404;53.974;-1.086;2023-04-26T16:00:35;101659.03;;;12.30;49.82
33265;BME280;31404;53.974;-1.086;2023-04-26T16:05:34;101660.67;;;11.14;48.44
33265;BME280;31404;53.974;-1.086;2023-04-26T16:10:34;101652.77;;;11.82;48.61
33265;BME280;31404;53.974;-1.086;2023-04-26T16:15:34;101658.70;;;11.47;48.68
33265;BME280;31404;53.974;-1.086;2023-04-26T16:20:34;101655.38;;;12.08;48.01
33265;BME280;31404;53.974;-1.086;2023-04-26T16:25:34;101659.33;;;11.10;48.88
33265;BME280;31404;53.974;-1.086;2023-04-26T16:30:34;101660.42;;;10.90;48.99
33265;BME280;31404;53.974;-1.086;2023-04-26T16:35:35;101662.44;;;11.33;48.91
33265;BME280;31404;53.974;-1.086;2023-04-26T16:40:35;101666.11;;;11.90;49.08
33265;BME280;31404;53.974;-1.086;2023-04-26T16:45:35;101668.29;;;12.32;48.90
33265;BME280;31404;53.974;-1.086;2023-04-26T16:50:34;101667.51;;;12.80;47.67
33265;BME280;31404;53.974;-1.086;2023-04-26T16:55:34;101666.15;;;12.86;47.82
33265;BME280;31404;53.974;-1.086;2023-04-26T17:00:35;101660.36;;;13.38;46.96
33265;BME280;31404;53.974;-1.086;2023-04-26T17:05:37;101665.00;;;10.96;49.74
33265;BME280;31404;53.974;-1.086;2023-04-26T17:10:35;101662.06;;;12.56;48.90
33265;BME280;31404;53.974;-1.086;2023-04-26T17:15:35;101672.97;;;11.23;50.01
33265;BME280;31404;53.974;-1.086;2023-04-26T17:20:35;101668.78;;;12.99;48.51
33265;BME280;31404;53.974;-1.086;2023-04-26T17:25:34;101674.19;;;11.91;49.15
33265;BME280;31404;53.974;-1.086;2023-04-26T17:30:35;101669.41;;;12.75;49.03
33265;BME280;31404;53.974;-1.086;2023-04-26T17:35:34;101668.65;;;12.69;48.37
33265;BME280;31404;53.974;-1.086;2023-04-26T17:40:35;101668.76;;;12.01;49.08
33265;BME280;31404;53.974;-1.086;2023-04-26T17:45:35;101657.08;;;12.80;48.53
33265;BME280;31404;53.974;-1.086;2023-04-26T17:50:35;101659.33;;;12.91;48.22
33265;BME280;31404;53.974;-1.086;2023-04-26T17:55:34;101667.09;;;11.55;49.85
33265;BME280;31404;53.974;-1.086;2023-04-26T18:00:34;101664.11;;;11.34;50.97
33265;BME280;31404;53.974;-1.086;2023-04-26T18:05:34;101666.35;;;11.63;50.33
33265;BME280;31404;53.974;-1.086;2023-04-26T18:10:34;101666.37;;;11.82;49.45
33265;BME280;31404;53.974;-1.086;2023-04-26T18:15:34;101659.39;;;11.57;49.65
33265;BME280;31404;53.974;-1.086;2023-04-26T18:20:34;101662.59;;;14.01;46.88
33265;BME280;31404;53.974;-1.086;2023-04-26T18:25:34;101667.69;;;11.75;50.39
33265;BME280;31404;53.974;-1.086;2023-04-26T18:30:34;101660.29;;;12.00;50.43
33265;BME280;31404;53.974;-1.086;2023-04-26T18:35:34;101662.65;;;13.88;47.59
33265;BME280;31404;53.974;-1.086;2023-04-26T18:40:34;101661.59;;;12.78;49.79
33265;BME280;31404;53.974;-1.086;2023-04-26T18:45:35;101656.95;;;12.67;49.18
33265;BME280;31404;53.974;-1.086;2023-04-26T18:50:36;101655.40;;;13.43;48.38
33265;BME280;31404;53.974;-1.086;2023-04-26T18:55:35;101662.97;;;14.04;47.76
33265;BME280;31404;53.974;-1.086;2023-04-26T19:00:35;101657.25;;;14.16;47.71
33265;BME280;31404;53.974;-1.086;2023-04-26T19:05:35;101664.25;;;11.76;50.85
33265;BME280;31404;53.974;-1.086;2023-04-26T19:10:35;101663.78;;;12.56;50.62
33265;BME280;31404;53.974;-1.086;2023-04-26T19:15:34;101666.28;;;13.05;49.51
33265;BME280;31404;53.974;-1.086;2023-04-26T19:20:35;101667.83;;;14.27;48.19
33265;BME280;31404;53.974;-1.086;2023-04-26T19:25:34;101670.32;;;12.32;50.60
33265;BME280;31404;53.974;-1.086;2023-04-26T19:30:35;101668.96;;;12.39;51.11
33265;BME280;31404;53.974;-1.086;2023-04-26T19:35:35;101670.70;;;12.04;51.44
33265;BME280;31404;53.974;-1.086;2023-04-26T19:40:35;101670.00;;;11.94;51.79
33265;BME280;31404;53.974;-1.086;2023-04-26T19:45:35;101673.75;;;13.48;49.80
33265;BME280;31404;53.974;-1.086;2023-04-26T19:50:37;101683.12;;;12.44;51.27
33265;BME280;31404;53.974;-1.086;2023-04-26T19:55:35;101685.60;;;12.14;51.62
33265;BME280;31404;53.974;-1.086;2023-04-26T20:00:35;101691.39;;;11.80;52.58
33265;BME280;31404;53.974;-1.086;2023-04-26T20:05:36;101691.23;;;11.65;53.06
33265;BME280;31404;53.974;-1.086;2023-04-26T20:10:34;101688.53;;;11.00;54.33
33265;BME280;31404;53.974;-1.086;2023-04-26T20:15:34;101693.27;;;12.58;52.57
33265;BME280;31404;53.974;-1.086;2023-04-26T20:20:35;101697.06;;;11.43;54.19
33265;BME280;31404;53.974;-1.086;2023-04-26T20:25:34;101701.85;;;10.84;55.01
33265;BME280;31404;53.974;-1.086;2023-04-26T20:30:34;101694.84;;;11.92;53.72
33265;BME280;31404;53.974;-1.086;2023-04-26T20:35:35;101698.40;;;12.12;52.98
33265;BME280;31404;53.974;-1.086;2023-04-26T20:40:35;101705.96;;;10.30;56.33
33265;BME280;31404;53.974;-1.086;2023-04-26T20:45:35;101703.43;;;10.43;56.09
33265;BME280;31404;53.974;-1.086;2023-04-26T20:50:34;101697.47;;;11.06;54.62
33265;BME280;31404;53.974;-1.086;2023-04-26T20:55:35;101701.35;;;12.38;52.10
33265;BME280;31404;53.974;-1.086;2023-04-26T21:00:35;101704.13;;;13.04;49.91
33265;BME280;31404;53.974;-1.086;2023-04-26T21:05:35;101715.61;;;12.48;49.82
33265;BME280;31404;53.974;-1.086;2023-04-26T21:10:34;101728.53;;;12.23;50.68
33265;BME280;31404;53.974;-1.086;2023-04-26T21:15:34;101736.00;;;10.41;52.82
33265;BME280;31404;53.974;-1.086;2023-04-26T21:20:34;101734.34;;;9.91;53.17
33265;BME280;31404;53.974;-1.086;2023-04-26T21:25:34;101728.23;;;11.18;51.53
33265;BME280;31404;53.974;-1.086;2023-04-26T21:35:40;101731.94;;;11.35;51.15
33265;BME280;31404;53.974;-1.086;2023-04-26T21:50:35;101743.99;;;11.29;51.60
33265;BME280;31404;53.974;-1.086;2023-04-26T21:55:34;101748.86;;;11.21;51.91
33265;BME280;31404;53.974;-1.086;2023-04-26T22:05:35;101750.14;;;10.51;53.09
33265;BME280;31404;53.974;-1.086;2023-04-26T22:10:34;101747.50;;;8.92;56.52
33265;BME280;31404;53.974;-1.086;2023-04-26T22:15:34;101745.79;;;9.52;55.70
33265;BME280;31404;53.974;-1.086;2023-04-26T22:20:35;101747.89;;;9.02;56.50
33265;BME280;31404;53.974;-1.086;2023-04-26T22:25:36;101753.36;;;8.73;57.91
33265;BME280;31404;53.974;-1.086;2023-04-26T22:30:34;101755.75;;;8.26;59.06
33265;BME280;31404;53.974;-1.086;2023-04-26T22:35:35;101755.56;;;9.10;57.54
33265;BME280;31404;53.974;-1.086;2023-04-26T22:40:34;101753.38;;;9.41;56.47
33265;BME280;31404;53.974;-1.086;2023-04-26T22:45:35;101760.39;;;9.50;56.74
33265;BME280;31404;53.974;-1.086;2023-04-26T22:50:35;101764.56;;;10.59;54.86
33265;BME280;31404;53.974;-1.086;2023-04-26T22:55:34;101770.39;;;10.50;55.57
33265;BME280;31404;53.974;-1.086;2023-04-26T23:00:36;101771.75;;;10.80;54.54
33265;BME280;31404;53.974;-1.086;2023-04-26T23:05:35;101772.23;;;10.27;56.24
33265;BME280;31404;53.974;-1.086;2023-04-26T23:10:34;101770.94;;;9.57;57.96
33265;BME280;31404;53.974;-1.086;2023-04-26T23:15:34;101773.26;;;11.00;55.43
33265;BME280;31404;53.974;-1.086;2023-04-26T23:20:34;101773.66;;;10.83;55.71
33265;BME280;31404;53.974;-1.086;2023-04-26T23:25:34;101772.74;;;9.82;56.85
33265;BME280;31404;53.974;-1.086;2023-04-26T23:30:35;101769.32;;;10.41;56.23
33265;BME280;31404;53.974;-1.086;2023-04-26T23:40:34;101771.47;;;9.98;57.62
33265;BME280;31404;53.974;-1.086;2023-04-26T23:45:34;101778.71;;;8.85;60.28
33265;BME280;31404;53.974;-1.086;2023-04-26T23:50:34;101776.11;;;8.47;61.48
33265;BME280;31404;53.974;-1.086;2023-04-26T23:55:34;101774.19;;;7.85;63.33
